Mc Sherrystown, Pennsylvania
Current Conditions -  °F | °C
As of 12:53 PM on Thursday 23 Oct 2014 (Local Time) from KTHV Reporting Station
Overcast Overcast  
Wind Chill: 57°   Ceiling: 3300
Heat Index: 57°   Visibility: 10mi
Dew Point: 45°   Wind: 13mph
Humidity: 64%   Direction: 320°NW
Pressure: 29.86"   Gusts: 24mph
Location:  39.8056°N, 77.0186°W
Report Text: KTHV 231653Z AUTO 32011G21KT 10SM OVC033 14/07 A2986 RMK AO2 SLP113 T01390072
Loading
Personal Weather Stations






























Interactive Weather Map
Tropical Storm Tracking
New forecast layout! Learn more

10-Day Weather Forecast

Advertisements
Track Severe Weather on mobile